createdAt,value
2022-10-01T00:00:00.123Z,13.38
2022-10-01T00:03:42.585Z,10.45
2022-10-01T00:07:24.557Z,13.85
2022-10-01T00:11:12.572Z,11.23
2022-10-01T00:14:54.563Z,12.55
2022-10-01T00:18:41.659Z,13.68
2022-10-01T00:22:23.615Z,14.02
2022-10-01T00:26:35.424Z,16.17
2022-10-01T00:30:17.704Z,14.18
2022-10-01T00:34:00.758Z,16.77
2022-10-01T00:37:42.876Z,13.52
2022-10-01T00:41:26.711Z,15.75
2022-10-01T00:45:13.769Z,13.50
2022-10-01T00:49:01.558Z,14.27
2022-10-01T00:52:52.335Z,14.82
2022-10-01T00:56:34.531Z,18.67
2022-10-01T01:01:10.783Z,11.20
2022-10-01T01:05:49.267Z,13.85
2022-10-01T01:09:38.483Z,12.50
2022-10-01T01:13:27.578Z,20.15
2022-10-01T01:17:15.639Z,18.52
2022-10-01T01:21:11.519Z,14.23
2022-10-01T01:25:29.156Z,13.48
2022-10-01T01:29:22.294Z,13.38
2022-10-01T01:33:15.873Z,15.65
2022-10-01T01:37:12.147Z,14.98
2022-10-01T01:40:57.793Z,14.80
2022-10-01T01:44:44.165Z,14.52
2022-10-01T01:48:27.537Z,17.98
2022-10-01T01:52:16.048Z,15.13
2022-10-01T01:56:00.880Z,17.02
2022-10-01T01:59:42.986Z,12.07
2022-10-01T02:03:27.043Z,11.48
2022-10-01T02:07:30.649Z,16.33
2022-10-01T02:11:25.302Z,9.82
2022-10-01T02:15:27.930Z,12.38
2022-10-01T02:19:31.380Z,10.27
2022-10-01T02:23:19.332Z,13.82
2022-10-01T02:27:11.479Z,10.85
2022-10-01T02:30:56.092Z,8.30
2022-10-01T02:34:40.356Z,13.73
2022-10-01T02:38:24.273Z,9.55
2022-10-01T02:42:12.621Z,12.15
2022-10-01T02:46:00.015Z,13.32
2022-10-01T02:49:42.279Z,10.50
2022-10-01T02:53:42.473Z,8.52
2022-10-01T02:57:28.060Z,10.37
2022-10-01T03:01:10.052Z,14.57
2022-10-01T03:04:52.180Z,7.80
2022-10-01T03:08:34.125Z,10.85
2022-10-01T03:12:17.313Z,10.43
2022-10-01T03:15:59.313Z,13.75
2022-10-01T03:19:41.654Z,11.88
2022-10-01T03:23:23.635Z,14.02
2022-10-01T03:27:05.851Z,10.60
2022-10-01T03:30:47.808Z,14.98
2022-10-01T03:34:29.846Z,13.93
2022-10-01T03:38:13.887Z,9.15
2022-10-01T03:45:46.823Z,10.40
2022-10-01T03:49:29.244Z,9.52
2022-10-01T03:53:12.579Z,11.27
2022-10-01T03:56:54.534Z,13.65
2022-10-01T04:00:36.668Z,11.88
2022-10-01T04:04:18.644Z,15.85
2022-10-01T04:08:01.146Z,14.48
2022-10-01T04:11:43.232Z,13.18
2022-10-01T04:15:25.666Z,9.80
2022-10-01T04:19:07.676Z,11.05
2022-10-01T04:22:49.804Z,7.93
2022-10-01T04:26:31.877Z,9.48
2022-10-01T04:30:13.879Z,9.98
2022-10-01T04:33:57.555Z,9.18
2022-10-01T04:37:39.896Z,9.38
2022-10-01T04:41:22.037Z,8.15
2022-10-01T04:45:04.396Z,8.32
2022-10-01T04:48:49.071Z,8.32
2022-10-01T04:52:31.067Z,8.95
2022-10-01T04:56:13.020Z,8.20
2022-10-01T04:59:54.974Z,8.02
2022-10-01T05:03:36.889Z,10.98
2022-10-01T05:07:20.099Z,9.93
2022-10-01T05:11:03.230Z,7.03
2022-10-01T05:14:45.240Z,6.13
2022-10-01T05:18:27.239Z,11.43
2022-10-01T05:22:09.174Z,8.27
2022-10-01T05:25:51.160Z,7.78
2022-10-01T05:29:33.523Z,10.07
2022-10-01T05:33:15.525Z,11.55
2022-10-01T05:36:57.579Z,8.88
2022-10-01T05:40:39.529Z,10.55
2022-10-01T05:44:22.729Z,8.48
2022-10-01T05:48:06.520Z,9.55
2022-10-01T05:51:49.176Z,11.38
2022-10-01T05:55:34.917Z,11.73
2022-10-01T05:59:17.369Z,8.30
2022-10-01T06:03:01.604Z,12.77
2022-10-01T06:06:43.755Z,11.57
2022-10-01T06:10:26.024Z,10.98
2022-10-01T06:14:09.078Z,13.32
2022-10-01T06:17:51.012Z,11.13
2022-10-01T06:21:33.304Z,7.75
2022-10-01T06:25:15.800Z,8.73
2022-10-01T06:28:58.056Z,10.90
2022-10-01T06:32:40.012Z,11.60
2022-10-01T06:36:22.021Z,11.23
2022-10-01T06:40:04.891Z,9.95
2022-10-01T06:43:50.239Z,15.15
2022-10-01T06:47:32.261Z,10.65
2022-10-01T06:51:14.357Z,14.70
2022-10-01T06:54:56.515Z,11.43
2022-10-01T06:58:38.665Z,9.70
2022-10-01T07:02:25.173Z,9.35
2022-10-01T07:06:09.149Z,10.80
2022-10-01T07:09:51.084Z,15.40
2022-10-01T07:13:33.082Z,10.73
2022-10-01T07:17:15.692Z,9.65
2022-10-01T07:20:58.384Z,10.18
2022-10-01T07:24:40.383Z,8.18
2022-10-01T07:28:25.771Z,10.88
2022-10-01T07:32:10.550Z,8.48
2022-10-01T07:35:52.699Z,9.60
2022-10-01T07:39:35.256Z,13.82
2022-10-01T07:43:17.260Z,9.45
2022-10-01T07:46:59.710Z,12.57
2022-10-01T07:50:45.408Z,11.07
2022-10-01T07:54:27.412Z,9.13
2022-10-01T07:58:11.224Z,9.63
2022-10-01T08:01:54.301Z,10.60
2022-10-01T08:05:36.677Z,6.80
2022-10-01T08:09:18.930Z,9.82
2022-10-01T08:13:14.635Z,10.82
2022-10-01T08:16:57.204Z,5.85
2022-10-01T08:20:40.064Z,9.57
2022-10-01T08:24:22.043Z,9.77
2022-10-01T08:28:09.235Z,7.38
2022-10-01T08:31:51.367Z,10.35
2022-10-01T08:35:33.552Z,9.23
2022-10-01T08:39:16.308Z,8.25
2022-10-01T08:43:06.439Z,10.05
2022-10-01T08:46:50.397Z,9.32
2022-10-01T08:50:39.537Z,12.18
2022-10-01T08:54:21.927Z,10.00
2022-10-01T08:58:06.896Z,9.13
2022-10-01T09:01:49.274Z,10.70
2022-10-01T09:05:57.977Z,10.40
2022-10-01T09:09:57.621Z,9.52
2022-10-01T09:14:08.594Z,9.35
2022-10-01T09:18:15.938Z,8.63
2022-10-01T09:22:02.274Z,11.02
2022-10-01T09:25:47.941Z,5.97
2022-10-01T09:30:01.526Z,10.18
2022-10-01T09:34:09.274Z,9.20
2022-10-01T09:38:18.769Z,12.10
2022-10-01T09:42:01.202Z,10.38
2022-10-01T09:45:43.265Z,12.82
2022-10-01T09:49:44.151Z,7.78
2022-10-01T09:53:34.977Z,9.13
2022-10-01T09:57:26.631Z,9.63
2022-10-01T10:01:20.831Z,10.63
2022-10-01T10:05:20.247Z,8.07
2022-10-01T10:09:02.808Z,10.73
2022-10-01T10:12:46.086Z,9.93
2022-10-01T10:16:30.564Z,9.05
2022-10-01T10:20:23.967Z,10.75
2022-10-01T10:24:19.937Z,11.45
2022-10-01T10:28:02.488Z,10.50
2022-10-01T10:31:46.473Z,9.27
2022-10-01T10:35:29.090Z,7.93
2022-10-01T10:39:22.118Z,8.20
2022-10-01T10:43:04.503Z,9.23
2022-10-01T10:46:47.196Z,8.55
2022-10-01T10:50:30.067Z,8.75
2022-10-01T10:54:41.350Z,7.70
2022-10-01T10:58:27.224Z,6.40
2022-10-01T11:02:18.542Z,7.03
2022-10-01T11:06:11.459Z,7.50
2022-10-01T11:10:00.721Z,7.80
2022-10-01T11:13:51.218Z,5.82
2022-10-01T11:17:57.649Z,5.15
2022-10-01T11:22:11.239Z,8.88
2022-10-01T11:26:16.716Z,7.82
2022-10-01T11:30:05.751Z,9.43
2022-10-01T11:34:50.922Z,7.55
2022-10-01T11:38:50.603Z,6.25
2022-10-01T11:42:36.434Z,5.30
2022-10-01T11:46:33.134Z,4.03
2022-10-01T11:50:22.174Z,6.15
2022-10-01T11:54:10.713Z,4.10
2022-10-01T11:58:17.417Z,7.32
2022-10-01T12:02:22.378Z,5.45
2022-10-01T12:06:09.523Z,6.88
2022-10-01T12:10:14.356Z,5.38
2022-10-01T12:14:05.499Z,6.22
2022-10-01T12:18:06.573Z,4.72
2022-10-01T12:22:00.696Z,7.78
2022-10-01T12:26:02.600Z,7.03
2022-10-01T12:29:50.847Z,5.00
2022-10-01T12:34:16.384Z,5.80
2022-10-01T12:38:22.716Z,7.05
2022-10-01T12:42:07.575Z,6.68
2022-10-01T12:46:39.692Z,7.10
2022-10-01T12:50:30.011Z,6.20
2022-10-01T12:54:14.827Z,6.53
2022-10-01T12:58:19.714Z,5.00
2022-10-01T13:02:20.183Z,7.53
2022-10-01T13:06:15.062Z,7.85
2022-10-01T13:10:00.367Z,8.18
2022-10-01T13:13:43.229Z,6.78
2022-10-01T13:17:35.962Z,7.78
2022-10-01T13:21:59.886Z,6.28
2022-10-01T13:26:09.389Z,8.02
2022-10-01T13:29:59.605Z,7.78
2022-10-01T13:33:42.118Z,10.32
2022-10-01T13:37:30.129Z,7.10
2022-10-01T13:41:30.187Z,8.23
2022-10-01T13:45:28.535Z,8.45
2022-10-01T13:49:30.408Z,8.45
2022-10-01T13:53:20.818Z,8.90
2022-10-01T13:57:10.488Z,7.47
2022-10-01T14:00:55.481Z,6.25
2022-10-01T14:04:42.159Z,6.63
2022-10-01T14:08:38.171Z,6.85
2022-10-01T14:12:53.500Z,7.55
2022-10-01T14:16:42.889Z,5.32
2022-10-01T14:20:30.707Z,7.57
2022-10-01T14:24:46.944Z,8.40
2022-10-01T14:28:49.725Z,7.63
2022-10-01T14:33:03.236Z,9.90
2022-10-01T14:36:49.454Z,8.05
2022-10-01T14:40:43.210Z,6.55
2022-10-01T14:44:29.745Z,8.45
2022-10-01T14:48:11.890Z,8.07
2022-10-01T14:52:27.990Z,8.43
2022-10-01T14:56:13.619Z,7.10
2022-10-01T14:59:57.981Z,7.88
2022-10-01T15:03:46.135Z,8.30
2022-10-01T15:07:33.469Z,5.25
2022-10-01T15:11:21.511Z,6.82
2022-10-01T15:15:03.736Z,6.75
2022-10-01T15:18:53.645Z,11.85
2022-10-01T15:22:35.755Z,7.97
2022-10-01T15:26:23.859Z,8.70
2022-10-01T15:30:13.299Z,8.88
2022-10-01T15:33:55.544Z,7.43
2022-10-01T15:37:38.418Z,6.47
2022-10-01T15:45:07.751Z,9.18
2022-10-01T15:49:20.228Z,8.57
2022-10-01T15:53:06.529Z,7.45
2022-10-01T15:56:49.425Z,10.80
2022-10-01T16:00:39.774Z,9.05
2022-10-01T16:04:21.883Z,6.45
2022-10-01T16:08:04.113Z,6.80
2022-10-01T16:12:17.939Z,12.93
2022-10-01T16:16:30.807Z,8.27
2022-10-01T16:20:15.787Z,8.82
2022-10-01T16:23:58.231Z,9.57
2022-10-01T16:27:47.829Z,8.07
2022-10-01T16:31:30.898Z,12.25
2022-10-01T16:35:16.332Z,9.07
2022-10-01T16:38:58.539Z,8.40
2022-10-01T16:42:41.526Z,9.25
2022-10-01T16:46:29.290Z,9.70
2022-10-01T16:50:16.878Z,7.90
2022-10-01T16:54:02.010Z,8.55
2022-10-01T16:57:44.296Z,6.38
2022-10-01T17:01:32.552Z,9.65
2022-10-01T17:05:28.564Z,8.30
2022-10-01T17:09:13.997Z,7.32
2022-10-01T17:12:57.007Z,6.38
2022-10-01T17:16:39.507Z,9.95
2022-10-01T17:20:23.127Z,8.15
2022-10-01T17:24:05.458Z,10.60
2022-10-01T17:27:48.352Z,7.88
2022-10-01T17:31:30.651Z,6.28
2022-10-01T17:35:15.055Z,7.60
2022-10-01T17:38:57.356Z,9.82
2022-10-01T17:42:39.882Z,13.57
2022-10-01T17:46:22.101Z,7.28
2022-10-01T17:50:17.760Z,6.47
2022-10-01T17:54:02.684Z,7.55
2022-10-01T17:57:44.646Z,6.65
2022-10-01T18:01:27.247Z,6.45
2022-10-01T18:05:12.732Z,9.68
2022-10-01T18:08:56.239Z,8.02
2022-10-01T18:12:40.750Z,6.03
2022-10-01T18:16:23.644Z,8.15
2022-10-01T18:20:07.667Z,7.30
2022-10-01T18:23:49.705Z,8.70
2022-10-01T18:27:31.830Z,11.57
2022-10-01T18:31:14.139Z,6.82
2022-10-01T18:34:59.161Z,8.38
2022-10-01T18:38:42.242Z,5.95
2022-10-01T18:42:51.764Z,7.82
2022-10-01T18:46:46.257Z,6.85
2022-10-01T18:50:48.960Z,8.52
2022-10-01T18:54:49.147Z,5.95
2022-10-01T18:58:40.315Z,8.10
2022-10-01T19:02:41.912Z,5.90
2022-10-01T19:06:33.392Z,5.75
2022-10-01T19:10:40.592Z,8.13
2022-10-01T19:14:28.888Z,6.60
2022-10-01T19:18:19.442Z,7.60
2022-10-01T19:22:05.863Z,9.85
2022-10-01T19:26:02.461Z,9.80
2022-10-01T19:30:01.245Z,5.63
2022-10-01T19:33:57.445Z,7.60
2022-10-01T19:37:47.468Z,9.32
2022-10-01T19:41:43.720Z,7.35
2022-10-01T19:45:33.934Z,9.30
2022-10-01T19:49:27.960Z,7.75
2022-10-01T20:11:58.725Z,9.48
2022-10-01T20:15:49.509Z,11.93
2022-10-01T20:19:42.333Z,9.70
2022-10-01T20:28:02.112Z,10.27
2022-10-01T20:32:13.405Z,8.77
2022-10-01T20:36:35.420Z,11.02
2022-10-01T20:44:15.522Z,9.88
2022-10-01T20:48:05.310Z,10.07
2022-10-01T20:52:00.702Z,14.93
2022-10-01T20:55:52.845Z,7.45
2022-10-01T20:59:45.728Z,8.73
2022-10-01T21:03:32.286Z,11.50
2022-10-01T21:08:01.528Z,14.18
2022-10-01T21:12:05.172Z,9.52
2022-10-01T21:16:14.652Z,10.15
2022-10-01T21:20:21.171Z,8.80
2022-10-01T21:24:47.388Z,9.75
2022-10-01T21:28:56.427Z,10.10
2022-10-01T21:33:06.458Z,6.38
2022-10-01T21:37:27.182Z,8.73
2022-10-01T21:41:28.015Z,9.20
2022-10-01T21:45:33.147Z,9.88
2022-10-01T21:49:36.203Z,11.20
2022-10-01T21:53:29.217Z,9.52
2022-10-01T21:57:29.908Z,10.80
2022-10-01T22:01:27.248Z,9.60
2022-10-01T22:05:30.259Z,8.88
2022-10-01T22:09:28.269Z,7.53
2022-10-01T22:13:35.096Z,9.05
2022-10-01T22:17:22.027Z,7.22
2022-10-01T22:21:10.703Z,10.43
2022-10-01T22:24:54.936Z,9.05
2022-10-01T22:28:41.016Z,12.57
2022-10-01T22:32:26.110Z,9.25
2022-10-01T22:36:14.039Z,8.35
2022-10-01T22:40:03.246Z,11.18
2022-10-01T22:43:46.143Z,9.45
2022-10-01T22:47:57.344Z,12.98
2022-10-01T22:51:52.180Z,11.52
2022-10-01T22:55:51.816Z,8.30
2022-10-01T22:59:58.117Z,10.15
2022-10-01T23:03:57.917Z,9.00
2022-10-01T23:08:09.125Z,11.65
2022-10-01T23:12:15.093Z,8.13
2022-10-01T23:16:16.299Z,9.60
2022-10-01T23:20:22.965Z,9.70
2022-10-01T23:24:07.763Z,7.07
2022-10-01T23:28:10.916Z,7.88
2022-10-01T23:32:19.318Z,10.23
2022-10-01T23:36:07.275Z,6.10
2022-10-01T23:39:57.157Z,8.70
2022-10-01T23:43:48.610Z,7.40
2022-10-01T23:47:39.608Z,7.93
2022-10-01T23:51:33.529Z,5.32
2022-10-01T23:55:39.700Z,7.47
2022-10-01T23:59:31.910Z,5.82
